createdAt,value
2019-03-25T00:03:18.386Z,6.47
2019-03-25T00:08:21.022Z,6.63
2019-03-25T00:13:23.642Z,6.13
2019-03-25T00:18:26.289Z,6.00
2019-03-25T00:23:29.014Z,6.23
2019-03-25T00:28:31.615Z,6.03
2019-03-25T00:33:34.237Z,5.90
2019-03-25T00:38:36.869Z,6.37
2019-03-25T00:43:39.466Z,6.13
2019-03-25T00:48:44.217Z,5.50
2019-03-25T00:53:46.934Z,5.50
2019-03-25T00:58:49.624Z,5.83
2019-03-25T01:03:52.372Z,5.87
2019-03-25T01:08:57.974Z,6.30
2019-03-25T01:14:00.606Z,6.27
2019-03-25T01:19:03.264Z,6.27
2019-03-25T01:24:05.882Z,7.23
2019-03-25T01:29:08.567Z,6.70
2019-03-25T01:34:11.207Z,7.17
2019-03-25T01:39:13.864Z,7.10
2019-03-25T01:44:16.509Z,8.03
2019-03-25T01:49:19.154Z,7.27
2019-03-25T01:54:21.748Z,8.47
2019-03-25T01:59:24.661Z,8.93
2019-03-25T02:04:27.135Z,9.77
2019-03-25T02:09:29.749Z,10.70
2019-03-25T02:14:34.748Z,10.20
2019-03-25T02:19:37.490Z,10.90
2019-03-25T02:24:40.081Z,10.60
2019-03-25T02:29:42.656Z,10.93
2019-03-25T02:34:45.312Z,11.17
2019-03-25T02:39:48.153Z,10.37
2019-03-25T02:44:50.793Z,10.43
2019-03-25T02:49:53.392Z,10.50
2019-03-25T02:55:02.280Z,9.63
2019-03-25T03:00:07.589Z,9.80
2019-03-25T03:05:10.497Z,8.33
2019-03-25T03:10:13.156Z,9.00
2019-03-25T03:15:15.754Z,8.60
2019-03-25T03:20:18.509Z,7.80
2019-03-25T03:25:21.104Z,7.37
2019-03-25T03:30:23.759Z,6.87
2019-03-25T03:35:26.533Z,6.70
2019-03-25T03:40:29.139Z,6.90
2019-03-25T03:45:31.737Z,7.77
2019-03-25T03:50:34.553Z,7.27
2019-03-25T03:55:38.772Z,7.57
2019-03-25T04:00:41.413Z,6.83
2019-03-25T04:05:44.047Z,7.10
2019-03-25T04:10:46.685Z,7.27
2019-03-25T04:15:49.298Z,6.83
2019-03-25T04:20:51.943Z,6.10
2019-03-25T04:25:54.522Z,6.13
2019-03-25T04:30:57.151Z,5.70
2019-03-25T04:35:59.827Z,5.40
2019-03-25T04:41:05.412Z,6.03
2019-03-25T04:46:08.009Z,5.33
2019-03-25T04:51:11.891Z,4.73
2019-03-25T04:56:14.470Z,4.47
2019-03-25T05:01:17.092Z,4.63
2019-03-25T05:06:22.002Z,3.80
2019-03-25T05:11:30.550Z,4.23
2019-03-25T05:16:29.164Z,4.07
2019-03-25T05:21:31.743Z,4.10
2019-03-25T05:26:34.474Z,3.53
2019-03-25T05:31:37.100Z,4.20
2019-03-25T05:36:41.857Z,3.90
2019-03-25T05:41:44.701Z,4.10
2019-03-25T05:46:47.311Z,4.80
2019-03-25T05:51:49.917Z,4.27
2019-03-25T05:57:02.055Z,3.97
2019-03-25T06:01:57.091Z,3.87
2019-03-25T06:06:59.695Z,4.10
2019-03-25T06:12:04.205Z,3.73
2019-03-25T06:17:08.412Z,4.30
2019-03-25T06:22:11.081Z,3.37
2019-03-25T06:27:14.647Z,4.17
2019-03-25T06:32:17.610Z,4.10
2019-03-25T06:37:20.329Z,4.30
2019-03-25T06:42:23.049Z,4.40
2019-03-25T06:47:25.752Z,4.20
2019-03-25T06:52:28.381Z,4.63
2019-03-25T06:57:31.045Z,5.03
2019-03-25T07:02:33.744Z,4.83
2019-03-25T07:07:36.303Z,4.27
2019-03-25T07:12:39.430Z,4.60
2019-03-25T07:17:42.084Z,5.07
2019-03-25T07:22:44.781Z,5.30
2019-03-25T07:27:48.711Z,5.90
2019-03-25T07:32:51.290Z,6.43
2019-03-25T07:37:54.055Z,6.40
2019-03-25T07:42:56.741Z,6.37
2019-03-25T07:47:59.397Z,6.10
2019-03-25T07:53:02.103Z,5.50
2019-03-25T07:58:04.808Z,5.30
2019-03-25T08:03:07.499Z,5.40
2019-03-25T08:08:10.236Z,5.27
2019-03-25T08:13:12.938Z,4.70
2019-03-25T08:18:15.660Z,4.47
2019-03-25T08:23:18.293Z,3.57
2019-03-25T08:28:20.873Z,4.00
2019-03-25T08:33:23.515Z,3.83
2019-03-25T08:38:27.354Z,3.23
2019-03-25T08:43:30.040Z,3.27
2019-03-25T08:48:32.718Z,2.80
2019-03-25T08:53:35.400Z,2.60
2019-03-25T08:58:38.230Z,2.10
2019-03-25T09:03:40.896Z,1.60
2019-03-25T09:08:44.733Z,2.17
2019-03-25T09:13:47.220Z,1.90
2019-03-25T09:18:49.940Z,1.30
2019-03-25T09:23:52.636Z,1.43
2019-03-25T09:28:55.234Z,1.80
2019-03-25T09:33:57.888Z,1.50
2019-03-25T09:39:00.618Z,1.40
2019-03-25T09:44:03.646Z,1.60
2019-03-25T09:49:06.324Z,2.23
2019-03-25T09:54:10.518Z,2.60
2019-03-25T09:59:15.083Z,2.50
2019-03-25T10:04:20.039Z,2.23
2019-03-25T10:09:23.815Z,2.00
2019-03-25T10:14:26.503Z,2.23
2019-03-25T10:19:29.180Z,1.67
2019-03-25T10:24:32.947Z,1.37
2019-03-25T10:29:35.582Z,1.07
2019-03-25T10:34:38.293Z,1.20
2019-03-25T10:39:40.876Z,1.33
2019-03-25T10:44:43.461Z,1.23
2019-03-25T10:49:46.011Z,1.03
2019-03-25T10:54:48.920Z,1.37
2019-03-25T10:59:51.670Z,1.10
2019-03-25T11:04:54.261Z,1.10
2019-03-25T11:09:56.940Z,0.87
2019-03-25T11:15:02.096Z,1.57
2019-03-25T11:20:04.899Z,1.10
2019-03-25T11:25:08.702Z,0.80
2019-03-25T11:30:13.439Z,1.13
2019-03-25T11:35:16.353Z,1.00
2019-03-25T11:40:19.118Z,1.10
2019-03-25T11:45:21.792Z,0.80
2019-03-25T11:50:24.424Z,1.30
2019-03-25T11:55:27.055Z,1.63
2019-03-25T12:00:29.640Z,1.43
2019-03-25T12:05:32.275Z,1.20
2019-03-25T12:10:34.888Z,2.47
2019-03-25T12:15:37.557Z,1.80
2019-03-25T12:20:40.271Z,1.50
2019-03-25T12:25:42.894Z,1.73
2019-03-25T12:30:45.719Z,1.63
2019-03-25T12:35:50.466Z,1.80
2019-03-25T12:40:53.228Z,1.20
2019-03-25T12:45:55.825Z,1.37
2019-03-25T12:50:58.436Z,1.40
2019-03-25T12:56:01.107Z,1.53
2019-03-25T13:01:06.026Z,1.07
2019-03-25T13:06:08.653Z,0.80
2019-03-25T13:11:11.268Z,0.90
2019-03-25T13:16:13.881Z,1.00
2019-03-25T13:21:16.553Z,0.73
2019-03-25T13:26:19.144Z,1.07
2019-03-25T13:31:21.830Z,1.00
2019-03-25T13:36:24.436Z,0.83
2019-03-25T13:41:27.182Z,1.47
2019-03-25T13:46:29.954Z,1.30
2019-03-25T13:51:32.667Z,0.83
2019-03-25T13:56:35.315Z,1.03
2019-03-25T14:01:37.932Z,0.80
2019-03-25T14:06:40.548Z,0.87
2019-03-25T14:11:43.190Z,1.00
2019-03-25T14:16:45.846Z,0.73
2019-03-25T14:21:48.436Z,1.20
2019-03-25T14:26:51.121Z,1.17
2019-03-25T14:31:53.704Z,0.80
2019-03-25T14:36:56.316Z,1.27
2019-03-25T14:41:59.158Z,0.90
2019-03-25T14:47:01.799Z,1.10
2019-03-25T14:52:04.543Z,0.83
2019-03-25T14:57:07.153Z,1.00
2019-03-25T15:02:09.798Z,1.00
2019-03-25T15:07:12.355Z,1.20
2019-03-25T15:12:14.955Z,1.10
2019-03-25T15:17:17.867Z,1.10
2019-03-25T15:22:20.694Z,0.90
2019-03-25T15:27:23.289Z,0.90
2019-03-25T15:32:25.896Z,1.50
2019-03-25T15:37:28.511Z,1.30
2019-03-25T15:42:31.114Z,1.43
2019-03-25T15:47:33.745Z,0.80
2019-03-25T15:52:36.484Z,0.40
2019-03-25T15:57:39.877Z,0.90
2019-03-25T16:02:42.860Z,0.50
2019-03-25T16:07:45.757Z,0.97
2019-03-25T16:12:48.451Z,0.77
2019-03-25T16:17:51.064Z,0.60
2019-03-25T16:22:53.734Z,0.50
2019-03-25T16:27:56.330Z,0.83
2019-03-25T16:32:58.992Z,0.50
2019-03-25T16:38:01.602Z,0.60
2019-03-25T16:43:04.266Z,0.60
2019-03-25T16:48:06.863Z,0.70
2019-03-25T16:53:10.523Z,0.50
2019-03-25T16:58:13.134Z,0.80
2019-03-25T17:03:15.797Z,0.80
2019-03-25T17:08:18.444Z,0.83
2019-03-25T17:13:21.051Z,0.70
2019-03-25T17:18:24.743Z,0.77
2019-03-25T17:23:27.440Z,0.73
2019-03-25T17:28:30.104Z,1.37
2019-03-25T17:33:32.737Z,2.90
2019-03-25T17:38:35.350Z,1.50
2019-03-25T17:43:37.958Z,1.20
2019-03-25T17:48:40.597Z,0.93
2019-03-25T17:53:43.213Z,1.53
2019-03-25T17:58:46.013Z,1.63
2019-03-25T18:03:48.704Z,1.90
2019-03-25T18:08:51.461Z,1.97
2019-03-25T18:14:02.995Z,1.90
2019-03-25T18:19:05.880Z,2.00
2019-03-25T18:24:08.619Z,2.70
2019-03-25T18:29:11.208Z,2.43
2019-03-25T18:34:13.889Z,2.60
2019-03-25T18:39:16.551Z,2.57
2019-03-25T18:44:19.386Z,2.27
2019-03-25T18:49:22.050Z,2.10
2019-03-25T18:54:24.790Z,2.00
2019-03-25T18:59:27.496Z,2.63
2019-03-25T19:04:30.194Z,2.30
2019-03-25T19:09:32.996Z,2.70
2019-03-25T19:14:35.653Z,5.73
2019-03-25T19:19:39.395Z,3.67
2019-03-25T19:24:42.058Z,3.27
2019-03-25T19:29:44.744Z,2.60
2019-03-25T19:34:47.520Z,3.20
2019-03-25T19:39:50.337Z,3.10
2019-03-25T19:44:52.906Z,3.57
2019-03-25T19:49:55.653Z,4.70
2019-03-25T19:54:58.292Z,3.97
2019-03-25T20:00:03.623Z,3.03
2019-03-25T20:05:07.799Z,2.87
2019-03-25T20:10:26.325Z,2.93
2019-03-25T20:15:35.763Z,3.47
2019-03-25T20:20:35.510Z,3.27
2019-03-25T20:25:38.823Z,3.47
2019-03-25T20:30:41.629Z,3.43
2019-03-25T20:35:46.371Z,2.87
2019-03-25T20:40:48.934Z,3.40
2019-03-25T20:45:51.852Z,2.90
2019-03-25T20:50:55.612Z,3.03
2019-03-25T20:55:58.433Z,2.83
2019-03-25T21:01:01.431Z,2.97
2019-03-25T21:06:04.124Z,2.60
2019-03-25T21:11:06.815Z,2.27
2019-03-25T21:16:09.472Z,2.10
2019-03-25T21:21:12.155Z,2.23
2019-03-25T21:26:16.409Z,2.50
2019-03-25T21:31:19.113Z,2.23
2019-03-25T21:36:21.888Z,2.93
2019-03-25T21:41:24.583Z,2.43
2019-03-25T21:46:28.561Z,2.30
2019-03-25T21:51:31.148Z,2.23
2019-03-25T21:56:33.873Z,2.00
2019-03-25T22:01:36.544Z,2.40
2019-03-25T22:06:39.192Z,2.40
2019-03-25T22:11:41.892Z,2.40
2019-03-25T22:16:44.653Z,2.67
2019-03-25T22:21:47.282Z,2.17
2019-03-25T22:26:49.843Z,2.10
2019-03-25T22:31:52.579Z,2.40
2019-03-25T22:36:55.241Z,2.30
2019-03-25T22:41:57.854Z,2.70
2019-03-25T22:47:01.714Z,2.80
2019-03-25T22:52:05.570Z,3.47
2019-03-25T22:57:09.134Z,3.10
2019-03-25T23:02:11.853Z,2.83
2019-03-25T23:07:14.574Z,2.47
2019-03-25T23:12:17.444Z,2.93
2019-03-25T23:17:20.058Z,3.33
2019-03-25T23:22:22.724Z,3.97
2019-03-25T23:27:27.295Z,3.80
2019-03-25T23:32:31.117Z,3.57
2019-03-25T23:37:33.764Z,4.03
2019-03-25T23:42:36.376Z,3.80
2019-03-25T23:47:39.415Z,3.90
2019-03-25T23:52:42.163Z,3.33
2019-03-25T23:57:44.888Z,3.63
